createdAt,value
2023-01-29T00:01:23.421Z,1.21
2023-01-29T00:03:53.386Z,1.25
2023-01-29T00:06:20.661Z,1.38
2023-01-29T00:08:47.527Z,1.32
2023-01-29T00:11:14.403Z,1.46
2023-01-29T00:13:41.150Z,1.62
2023-01-29T00:16:08.177Z,1.60
2023-01-29T00:18:38.816Z,1.70
2023-01-29T00:21:17.247Z,1.50
2023-01-29T00:23:44.144Z,1.27
2023-01-29T00:26:11.226Z,1.30
2023-01-29T00:28:42.002Z,1.53
2023-01-29T00:31:14.125Z,1.52
2023-01-29T00:33:41.368Z,1.72
2023-01-29T00:36:10.316Z,1.74
2023-01-29T00:38:37.981Z,1.94
2023-01-29T00:41:31.313Z,1.91
2023-01-29T00:44:17.155Z,1.79
2023-01-29T00:46:44.176Z,1.82
2023-01-29T00:49:11.312Z,1.85
2023-01-29T00:51:39.631Z,1.96
2023-01-29T00:54:09.630Z,2.12
2023-01-29T00:56:37.311Z,2.48
2023-01-29T00:59:04.787Z,2.51
2023-01-29T01:01:50.293Z,2.28
2023-01-29T01:04:17.165Z,2.29
2023-01-29T01:06:43.981Z,2.56
2023-01-29T01:09:29.704Z,2.74
2023-01-29T01:11:56.537Z,2.68
2023-01-29T01:14:23.386Z,2.56
2023-01-29T01:16:50.329Z,2.49
2023-01-29T01:19:17.989Z,2.36
2023-01-29T01:21:48.219Z,2.46
2023-01-29T01:24:15.481Z,2.35
2023-01-29T01:26:42.371Z,2.43
2023-01-29T01:29:09.285Z,2.39
2023-01-29T01:31:36.242Z,2.33
2023-01-29T01:34:03.277Z,2.29
2023-01-29T01:36:32.425Z,2.16
2023-01-29T01:38:59.349Z,2.24
2023-01-29T01:41:26.578Z,2.27
2023-01-29T01:43:55.629Z,2.21
2023-01-29T01:46:22.770Z,2.16
2023-01-29T01:48:58.325Z,2.49
2023-01-29T01:51:26.683Z,2.63
2023-01-29T01:54:02.142Z,2.64
2023-01-29T01:56:38.469Z,2.33
2023-01-29T01:59:08.093Z,2.19
2023-01-29T02:01:34.958Z,2.39
2023-01-29T02:04:29.955Z,2.39
2023-01-29T02:07:17.403Z,2.34
2023-01-29T02:09:48.500Z,2.53
2023-01-29T02:12:16.734Z,2.64
2023-01-29T02:14:44.361Z,2.75
2023-01-29T02:17:14.584Z,2.70
2023-01-29T02:19:52.723Z,2.66
2023-01-29T02:22:56.553Z,2.63
2023-01-29T02:26:00.056Z,2.75
2023-01-29T02:28:40.760Z,2.78
2023-01-29T02:31:33.745Z,3.10
2023-01-29T02:34:10.933Z,3.28
2023-01-29T02:36:47.357Z,3.39
2023-01-29T02:39:57.726Z,3.45
2023-01-29T02:43:24.429Z,3.39
2023-01-29T02:46:16.104Z,3.32
2023-01-29T02:48:54.768Z,3.24
2023-01-29T02:51:32.184Z,3.29
2023-01-29T02:54:16.816Z,3.41
2023-01-29T02:57:00.866Z,3.49
2023-01-29T03:00:07.126Z,3.53
2023-01-29T03:03:12.037Z,3.62
2023-01-29T03:05:45.089Z,3.60
2023-01-29T03:08:16.150Z,3.56
2023-01-29T03:10:54.409Z,3.54
2023-01-29T03:13:29.764Z,3.51
2023-01-29T03:16:03.135Z,3.61
2023-01-29T03:18:44.961Z,3.50
2023-01-29T03:21:41.639Z,3.53
2023-01-29T03:24:31.934Z,3.94
2023-01-29T03:27:21.249Z,4.25
2023-01-29T03:30:09.053Z,4.34
2023-01-29T03:32:48.973Z,4.49
2023-01-29T03:35:33.631Z,4.54
2023-01-29T03:38:01.086Z,4.68
2023-01-29T03:40:30.226Z,4.85
2023-01-29T03:43:53.220Z,5.02
2023-01-29T03:46:36.792Z,5.14
2023-01-29T03:49:19.433Z,5.27
2023-01-29T03:51:59.360Z,5.39
2023-01-29T03:54:32.945Z,5.41
2023-01-29T03:57:02.592Z,5.43
2023-01-29T03:59:43.737Z,5.48
2023-01-29T04:02:31.963Z,5.57
2023-01-29T04:05:09.488Z,5.47
2023-01-29T04:07:47.435Z,5.43
2023-01-29T04:10:18.631Z,5.52
2023-01-29T04:12:55.391Z,5.55
2023-01-29T04:15:23.402Z,5.41
2023-01-29T04:17:52.826Z,5.51
2023-01-29T04:20:43.248Z,5.49
2023-01-29T04:23:20.824Z,5.54
2023-01-29T04:25:54.563Z,5.51
2023-01-29T04:28:28.681Z,5.32
2023-01-29T04:31:01.367Z,5.36
2023-01-29T04:33:31.763Z,4.94
2023-01-29T04:36:10.953Z,5.00
2023-01-29T04:39:17.441Z,5.07
2023-01-29T04:41:54.708Z,4.97
2023-01-29T04:44:28.819Z,4.99
2023-01-29T04:47:15.702Z,4.99
2023-01-29T04:50:13.142Z,5.03
2023-01-29T04:52:49.232Z,5.10
2023-01-29T04:55:28.141Z,4.99
2023-01-29T04:58:17.012Z,4.92
2023-01-29T05:00:45.611Z,4.84
2023-01-29T05:03:14.209Z,4.91
2023-01-29T05:05:46.737Z,4.90
2023-01-29T05:08:16.146Z,4.80
2023-01-29T05:10:43.215Z,4.86
2023-01-29T05:13:12.489Z,5.13
2023-01-29T05:15:47.236Z,5.43
2023-01-29T05:18:14.084Z,5.55
2023-01-29T05:20:42.713Z,5.56
2023-01-29T05:23:11.807Z,5.59
2023-01-29T05:25:38.822Z,5.70
2023-01-29T05:28:16.346Z,5.66
2023-01-29T05:30:44.809Z,5.62
2023-01-29T05:33:18.331Z,5.67
2023-01-29T05:35:45.552Z,5.80
2023-01-29T05:38:12.542Z,6.05
2023-01-29T05:40:39.514Z,6.19
2023-01-29T05:43:07.625Z,6.37
2023-01-29T05:45:34.490Z,6.64
2023-01-29T05:48:01.228Z,6.68
2023-01-29T05:50:28.793Z,6.89
2023-01-29T05:52:59.656Z,6.91
2023-01-29T05:55:27.708Z,6.89
2023-01-29T05:57:54.412Z,6.86
2023-01-29T06:00:21.526Z,6.82
2023-01-29T06:02:48.450Z,6.87
2023-01-29T06:05:15.449Z,6.85
2023-01-29T06:07:45.338Z,6.71
2023-01-29T06:10:14.248Z,6.65
2023-01-29T06:12:42.348Z,6.56
2023-01-29T06:15:10.039Z,6.42
2023-01-29T06:17:37.028Z,6.37
2023-01-29T06:20:04.849Z,6.46
2023-01-29T06:22:32.988Z,6.77
2023-01-29T06:24:59.868Z,6.86
2023-01-29T06:27:26.780Z,6.90
2023-01-29T06:29:53.541Z,7.03
2023-01-29T06:32:20.299Z,7.19
2023-01-29T06:34:49.451Z,7.29
2023-01-29T06:37:16.563Z,7.42
2023-01-29T06:39:43.403Z,7.49
2023-01-29T06:42:11.203Z,7.57
2023-01-29T06:44:38.030Z,7.63
2023-01-29T06:47:05.351Z,7.73
2023-01-29T06:49:32.291Z,7.83
2023-01-29T06:51:59.397Z,7.84
2023-01-29T06:54:26.686Z,7.93
2023-01-29T06:56:54.404Z,7.96
2023-01-29T06:59:21.170Z,7.87
2023-01-29T07:01:48.072Z,7.80
2023-01-29T07:04:15.032Z,7.66
2023-01-29T07:06:41.805Z,7.57
2023-01-29T07:09:08.621Z,7.53
2023-01-29T07:11:35.692Z,7.55
2023-01-29T07:14:02.527Z,7.49
2023-01-29T07:16:29.409Z,7.48
2023-01-29T07:18:56.236Z,7.54
2023-01-29T07:21:23.108Z,7.64
2023-01-29T07:23:49.930Z,7.27
2023-01-29T07:26:17.041Z,6.63
2023-01-29T07:28:43.797Z,6.68
2023-01-29T07:31:12.817Z,6.54
2023-01-29T07:33:39.662Z,6.26
2023-01-29T07:36:10.068Z,6.26
2023-01-29T07:38:37.354Z,6.13
2023-01-29T07:41:04.180Z,6.06
2023-01-29T07:43:31.090Z,5.80
2023-01-29T07:46:01.967Z,5.50
2023-01-29T07:48:28.922Z,5.48
2023-01-29T07:50:58.994Z,5.43
2023-01-29T07:53:25.898Z,5.22
2023-01-29T07:55:52.826Z,5.26
2023-01-29T07:58:19.796Z,5.24
2023-01-29T08:00:46.618Z,5.17
2023-01-29T08:03:18.246Z,5.10
2023-01-29T08:05:45.319Z,5.10
2023-01-29T08:08:12.260Z,4.92
2023-01-29T08:10:39.969Z,4.80
2023-01-29T08:13:07.842Z,4.81
2023-01-29T08:15:36.636Z,4.78
2023-01-29T08:18:05.019Z,4.79
2023-01-29T08:20:31.965Z,4.79
2023-01-29T08:23:12.475Z,4.78
2023-01-29T08:25:39.264Z,4.71
2023-01-29T08:28:06.133Z,4.65
2023-01-29T08:30:34.347Z,4.64
2023-01-29T08:33:01.788Z,4.62
2023-01-29T08:35:28.638Z,4.67
2023-01-29T08:37:58.362Z,4.69
2023-01-29T08:40:25.654Z,4.80
2023-01-29T08:42:52.392Z,4.76
2023-01-29T08:45:19.158Z,4.68
2023-01-29T08:47:49.948Z,4.57
2023-01-29T08:50:18.148Z,4.84
2023-01-29T08:52:45.881Z,4.92
2023-01-29T08:55:13.103Z,4.89
2023-01-29T08:57:39.920Z,4.85
2023-01-29T09:00:09.747Z,4.87
2023-01-29T09:02:37.227Z,5.00
2023-01-29T09:05:04.195Z,5.11
2023-01-29T09:07:30.975Z,5.16
2023-01-29T09:09:57.733Z,5.29
2023-01-29T09:12:24.691Z,5.28
2023-01-29T09:14:51.619Z,5.32
2023-01-29T09:17:18.497Z,5.61
2023-01-29T09:19:45.324Z,5.76
2023-01-29T09:22:12.259Z,5.76
2023-01-29T09:24:39.013Z,5.90
2023-01-29T09:27:06.292Z,6.01
2023-01-29T09:29:35.678Z,6.13
2023-01-29T09:32:04.511Z,6.15
2023-01-29T09:34:31.306Z,6.14
2023-01-29T09:36:58.190Z,6.14
2023-01-29T09:39:25.092Z,6.15
2023-01-29T09:42:15.589Z,6.14
2023-01-29T09:44:51.289Z,6.11
2023-01-29T09:47:18.636Z,6.16
2023-01-29T09:49:59.854Z,6.29
2023-01-29T09:52:30.775Z,6.23
2023-01-29T09:55:03.574Z,6.14
2023-01-29T09:58:27.547Z,6.99
2023-01-29T10:01:34.133Z,8.05
2023-01-29T10:04:08.132Z,8.41
2023-01-29T10:06:40.952Z,8.72
2023-01-29T10:09:51.811Z,8.95
2023-01-29T10:12:46.093Z,8.95
2023-01-29T10:15:40.955Z,9.35
2023-01-29T10:18:55.681Z,9.49
2023-01-29T10:21:25.228Z,9.70
2023-01-29T10:24:24.278Z,9.60
2023-01-29T10:26:52.514Z,9.59
2023-01-29T10:29:22.086Z,9.74
2023-01-29T10:31:56.565Z,9.78
2023-01-29T10:34:32.117Z,9.82
2023-01-29T10:36:59.963Z,9.89
2023-01-29T10:39:27.138Z,9.88
2023-01-29T10:42:29.425Z,9.96
2023-01-29T10:45:24.636Z,10.01
2023-01-29T10:48:22.420Z,9.97
2023-01-29T10:50:51.266Z,10.01
2023-01-29T10:53:39.764Z,10.08
2023-01-29T10:56:22.313Z,10.08
2023-01-29T10:59:00.158Z,10.13
2023-01-29T11:01:27.152Z,10.12
2023-01-29T11:04:02.349Z,10.17
2023-01-29T11:06:35.295Z,10.13
2023-01-29T11:09:29.547Z,10.15
2023-01-29T11:12:21.634Z,10.01
2023-01-29T11:14:53.192Z,9.95
2023-01-29T11:17:22.905Z,9.98
2023-01-29T11:19:51.792Z,9.99
2023-01-29T11:22:21.188Z,9.98
2023-01-29T11:25:07.474Z,10.04
2023-01-29T11:27:35.695Z,10.00
2023-01-29T11:30:02.615Z,10.02
2023-01-29T11:32:32.891Z,10.00
2023-01-29T11:35:19.968Z,9.93
2023-01-29T11:37:47.096Z,9.87
2023-01-29T11:40:20.094Z,9.83
2023-01-29T11:42:47.610Z,9.72
2023-01-29T11:45:20.233Z,9.79
2023-01-29T11:47:53.065Z,9.81
2023-01-29T11:50:24.952Z,9.99
2023-01-29T11:52:52.131Z,9.96
2023-01-29T11:55:49.870Z,10.08
2023-01-29T11:58:21.607Z,10.13
2023-01-29T12:00:50.737Z,10.17
2023-01-29T12:03:25.043Z,10.22
2023-01-29T12:06:03.982Z,10.32
2023-01-29T12:08:37.920Z,10.43
2023-01-29T12:11:35.628Z,10.52
2023-01-29T12:14:05.600Z,10.55
2023-01-29T12:17:04.865Z,10.62
2023-01-29T12:19:50.376Z,10.71
2023-01-29T12:22:54.687Z,10.92
2023-01-29T12:25:28.862Z,10.88
2023-01-29T12:28:24.243Z,10.96
2023-01-29T12:31:17.627Z,10.90
2023-01-29T12:34:02.683Z,10.98
2023-01-29T12:36:52.923Z,11.10
2023-01-29T12:39:20.527Z,11.16
2023-01-29T12:41:56.137Z,11.16
2023-01-29T12:44:31.059Z,11.06
2023-01-29T12:47:00.789Z,11.08
2023-01-29T12:49:33.337Z,11.17
2023-01-29T12:52:07.689Z,11.11
2023-01-29T12:54:41.203Z,11.01
2023-01-29T12:57:23.499Z,11.13
2023-01-29T12:59:58.740Z,11.12
2023-01-29T13:02:50.529Z,11.10
2023-01-29T13:05:30.356Z,11.05
2023-01-29T13:08:02.981Z,11.06
2023-01-29T13:10:34.297Z,11.13
2023-01-29T13:13:10.327Z,11.19
2023-01-29T13:15:39.243Z,11.20
2023-01-29T13:18:38.395Z,11.31
2023-01-29T13:21:05.967Z,11.31
2023-01-29T13:23:39.873Z,11.22
2023-01-29T13:26:06.850Z,11.22
2023-01-29T13:28:33.653Z,11.17
2023-01-29T13:31:31.544Z,11.07
2023-01-29T13:34:06.924Z,10.96
2023-01-29T13:36:34.933Z,10.92
2023-01-29T13:39:05.269Z,10.80
2023-01-29T13:41:38.546Z,10.73
2023-01-29T13:44:07.421Z,10.67
2023-01-29T13:46:40.495Z,10.54
2023-01-29T13:49:42.782Z,10.53
2023-01-29T13:52:34.979Z,10.57
2023-01-29T13:55:09.114Z,10.47
2023-01-29T13:57:45.084Z,10.57
2023-01-29T14:00:20.979Z,10.47
2023-01-29T14:02:49.020Z,10.59
2023-01-29T14:05:31.183Z,10.71
2023-01-29T14:08:09.689Z,10.80
2023-01-29T14:10:37.864Z,11.06
2023-01-29T14:13:04.568Z,10.91
2023-01-29T14:15:36.078Z,11.17
2023-01-29T14:18:15.058Z,10.97
2023-01-29T14:20:47.960Z,11.00
2023-01-29T14:23:26.345Z,10.94
2023-01-29T14:25:53.179Z,10.85
2023-01-29T14:28:24.978Z,10.83
2023-01-29T14:30:52.581Z,10.88
2023-01-29T14:33:41.773Z,10.88
2023-01-29T14:36:13.131Z,11.04
2023-01-29T14:38:41.953Z,11.42
2023-01-29T14:41:26.679Z,11.66
2023-01-29T14:44:31.992Z,11.71
2023-01-29T14:46:58.840Z,11.72
2023-01-29T14:49:54.448Z,11.65
2023-01-29T14:52:25.951Z,11.62
2023-01-29T14:54:52.943Z,11.58
2023-01-29T14:57:20.371Z,11.62
2023-01-29T14:59:53.541Z,11.61
2023-01-29T15:02:27.025Z,11.60
2023-01-29T15:04:58.990Z,11.58
2023-01-29T15:07:31.034Z,11.44
2023-01-29T15:10:24.480Z,11.52
2023-01-29T15:13:15.637Z,11.48
2023-01-29T15:16:02.899Z,11.40
2023-01-29T15:18:43.326Z,11.29
2023-01-29T15:21:15.646Z,11.11
2023-01-29T15:23:44.289Z,10.92
2023-01-29T15:26:16.190Z,10.77
2023-01-29T15:28:47.136Z,10.60
2023-01-29T15:31:18.473Z,10.61
2023-01-29T15:33:46.102Z,10.47
2023-01-29T15:36:20.246Z,10.31
2023-01-29T15:38:47.081Z,10.20
2023-01-29T15:41:22.008Z,9.52
2023-01-29T15:43:57.956Z,9.17
2023-01-29T15:46:30.109Z,9.16
2023-01-29T15:48:59.475Z,9.02
2023-01-29T15:51:27.606Z,9.02
2023-01-29T15:54:00.179Z,8.86
2023-01-29T15:56:31.507Z,8.80
2023-01-29T15:59:00.310Z,8.76
2023-01-29T16:01:28.974Z,8.61
2023-01-29T16:03:59.388Z,8.46
2023-01-29T16:06:26.995Z,8.41
2023-01-29T16:08:54.637Z,8.39
2023-01-29T16:11:21.620Z,8.29
2023-01-29T16:13:50.319Z,8.16
2023-01-29T16:16:27.689Z,8.25
2023-01-29T16:19:01.142Z,8.10
2023-01-29T16:21:39.328Z,8.17
2023-01-29T16:24:09.847Z,7.94
2023-01-29T16:26:38.753Z,7.99
2023-01-29T16:29:07.212Z,7.99
2023-01-29T16:31:35.955Z,7.82
2023-01-29T16:34:41.864Z,7.90
2023-01-29T16:37:20.267Z,7.76
2023-01-29T16:39:48.829Z,7.87
2023-01-29T16:42:20.381Z,7.87
2023-01-29T16:45:02.148Z,7.80
2023-01-29T16:47:41.435Z,7.78
2023-01-29T16:50:40.642Z,7.68
2023-01-29T16:53:20.925Z,7.44
2023-01-29T16:55:49.778Z,7.37
2023-01-29T16:58:21.381Z,7.23
2023-01-29T17:00:53.922Z,7.10
2023-01-29T17:03:21.353Z,7.05
2023-01-29T17:05:48.355Z,6.96
2023-01-29T17:08:19.838Z,6.85
2023-01-29T17:10:49.754Z,6.69
2023-01-29T17:13:27.520Z,6.55
2023-01-29T17:16:00.236Z,6.46
2023-01-29T17:18:27.049Z,6.53
2023-01-29T17:20:53.925Z,6.43
2023-01-29T17:23:21.089Z,6.49
2023-01-29T17:25:48.211Z,6.57
2023-01-29T17:28:17.327Z,6.64
2023-01-29T17:30:50.581Z,6.54
2023-01-29T17:33:23.504Z,6.55
2023-01-29T17:35:50.610Z,6.51
2023-01-29T17:38:25.914Z,6.56
2023-01-29T17:41:00.352Z,6.51
2023-01-29T17:43:27.526Z,6.49
2023-01-29T17:45:54.505Z,6.57
2023-01-29T17:48:26.670Z,6.47
2023-01-29T17:50:59.099Z,6.51
2023-01-29T17:53:30.560Z,6.45
2023-01-29T17:56:03.270Z,6.42
2023-01-29T17:58:30.044Z,6.41
2023-01-29T18:00:56.794Z,6.41
2023-01-29T18:03:23.673Z,6.36
2023-01-29T18:05:50.673Z,6.25
2023-01-29T18:08:35.426Z,6.28
2023-01-29T18:11:02.327Z,6.25
2023-01-29T18:13:29.058Z,6.24
2023-01-29T18:15:55.881Z,6.16
2023-01-29T18:18:23.987Z,6.21
2023-01-29T18:20:51.076Z,6.19
2023-01-29T18:23:18.652Z,6.08
2023-01-29T18:25:45.682Z,6.08
2023-01-29T18:28:19.931Z,6.06
2023-01-29T18:30:47.708Z,6.01
2023-01-29T18:33:15.792Z,6.07
2023-01-29T18:35:48.253Z,6.01
2023-01-29T18:38:15.178Z,5.98
2023-01-29T18:40:42.054Z,5.91
2023-01-29T18:43:09.220Z,5.88
2023-01-29T18:45:36.548Z,5.84
2023-01-29T18:48:03.690Z,5.84
2023-01-29T18:50:30.684Z,5.84
2023-01-29T18:52:57.580Z,5.85
2023-01-29T18:55:24.352Z,5.80
2023-01-29T18:58:29.578Z,5.79
2023-01-29T19:00:41.931Z,5.81
2023-01-29T19:03:08.785Z,5.74
2023-01-29T19:05:35.685Z,5.71
2023-01-29T19:08:02.501Z,5.73
2023-01-29T19:10:29.289Z,5.74
2023-01-29T19:12:56.165Z,5.77
2023-01-29T19:15:23.255Z,5.72
2023-01-29T19:17:51.124Z,5.73
2023-01-29T19:20:18.196Z,5.71
2023-01-29T19:22:45.143Z,5.75
2023-01-29T19:25:12.830Z,5.62
2023-01-29T19:27:39.879Z,5.64
2023-01-29T19:30:07.675Z,5.49
2023-01-29T19:32:34.698Z,5.56
2023-01-29T19:35:01.571Z,5.52
2023-01-29T19:37:30.573Z,5.58
2023-01-29T19:39:57.534Z,5.62
2023-01-29T19:42:24.575Z,5.46
2023-01-29T19:44:52.141Z,5.49
2023-01-29T19:47:19.182Z,5.49
2023-01-29T19:49:46.055Z,5.49
2023-01-29T19:52:49.861Z,5.43
2023-01-29T19:55:19.071Z,5.42
2023-01-29T19:57:46.189Z,5.35
2023-01-29T20:00:15.583Z,5.37
2023-01-29T20:02:42.386Z,5.30
2023-01-29T20:05:12.080Z,5.24
2023-01-29T20:07:40.569Z,5.16
2023-01-29T20:10:09.750Z,5.08
2023-01-29T20:12:36.571Z,5.07
2023-01-29T20:15:03.943Z,4.89
2023-01-29T20:17:30.762Z,4.90
2023-01-29T20:19:57.563Z,4.82
2023-01-29T20:22:26.559Z,4.76
2023-01-29T20:24:53.276Z,4.79
2023-01-29T20:27:20.089Z,4.65
2023-01-29T20:29:46.861Z,4.58
2023-01-29T20:32:14.737Z,4.64
2023-01-29T20:34:41.643Z,4.51
2023-01-29T20:37:08.382Z,4.52
2023-01-29T20:39:35.435Z,4.54
2023-01-29T20:42:02.239Z,4.50
2023-01-29T20:44:29.056Z,4.45
2023-01-29T20:46:58.518Z,4.43
2023-01-29T20:49:28.382Z,4.42
2023-01-29T20:51:55.265Z,4.46
2023-01-29T20:54:22.221Z,4.39
2023-01-29T20:56:49.277Z,4.39
2023-01-29T20:59:16.860Z,4.39
2023-01-29T21:01:44.220Z,4.41
2023-01-29T21:04:11.017Z,4.33
2023-01-29T21:06:37.833Z,4.36
2023-01-29T21:09:04.759Z,4.31
2023-01-29T21:11:33.464Z,4.20
2023-01-29T21:14:01.893Z,4.11
2023-01-29T21:16:29.089Z,4.17
2023-01-29T21:18:57.241Z,4.07
2023-01-29T21:21:24.343Z,4.00
2023-01-29T21:23:51.259Z,3.99
2023-01-29T21:26:18.921Z,3.97
2023-01-29T21:28:46.206Z,3.99
2023-01-29T21:31:14.606Z,3.92
2023-01-29T21:33:41.397Z,3.96
2023-01-29T21:36:10.175Z,3.92
2023-01-29T21:38:37.033Z,3.98
2023-01-29T21:41:05.957Z,4.00
2023-01-29T21:43:33.216Z,4.08
2023-01-29T21:46:03.921Z,4.08
2023-01-29T21:48:30.786Z,4.02
2023-01-29T21:50:57.609Z,4.00
2023-01-29T21:53:24.707Z,3.94
2023-01-29T21:55:51.913Z,3.91
2023-01-29T21:58:20.863Z,3.86
2023-01-29T22:00:48.933Z,3.90
2023-01-29T22:03:15.999Z,3.89
2023-01-29T22:05:42.911Z,3.85
2023-01-29T22:09:35.629Z,3.82
2023-01-29T22:12:02.434Z,3.87
2023-01-29T22:14:29.277Z,3.89
2023-01-29T22:16:56.928Z,3.93
2023-01-29T22:19:25.350Z,3.97
2023-01-29T22:21:53.156Z,4.00
2023-01-29T22:24:21.097Z,4.03
2023-01-29T22:26:49.618Z,4.04
2023-01-29T22:29:19.712Z,4.05
2023-01-29T22:31:46.789Z,4.10
2023-01-29T22:34:14.488Z,4.05
2023-01-29T22:36:41.283Z,4.01
2023-01-29T22:39:08.784Z,3.99
2023-01-29T22:41:36.490Z,3.91
2023-01-29T22:44:03.497Z,3.88
2023-01-29T22:46:30.498Z,3.87
2023-01-29T22:48:57.276Z,3.86
2023-01-29T22:51:24.069Z,3.84
2023-01-29T22:53:53.154Z,3.87
2023-01-29T22:56:25.224Z,3.79
2023-01-29T22:58:52.938Z,3.79
2023-01-29T23:01:38.469Z,3.82
2023-01-29T23:04:05.394Z,3.82
2023-01-29T23:06:32.134Z,3.80
2023-01-29T23:08:59.322Z,3.79
2023-01-29T23:11:26.269Z,3.83
2023-01-29T23:13:55.073Z,3.81
2023-01-29T23:16:26.782Z,3.85
2023-01-29T23:18:55.599Z,3.85
2023-01-29T23:21:25.054Z,3.88
2023-01-29T23:24:01.487Z,3.86
2023-01-29T23:26:47.385Z,3.90
2023-01-29T23:29:14.825Z,3.96
2023-01-29T23:31:41.653Z,3.98
2023-01-29T23:34:08.574Z,4.05
2023-01-29T23:36:35.316Z,4.13
2023-01-29T23:39:02.086Z,4.11
2023-01-29T23:41:28.949Z,4.15
2023-01-29T23:43:55.806Z,4.16
2023-01-29T23:46:23.033Z,4.25
2023-01-29T23:48:49.836Z,4.32
2023-01-29T23:51:16.689Z,4.30
2023-01-29T23:53:43.555Z,4.35
2023-01-29T23:56:10.679Z,4.32
2023-01-29T23:58:37.553Z,4.34
